Vanduser, Missouri
Current Conditions -  °F | °C
As of 11:11 AM on Friday 31 Oct 2014 (Local Time) from KCGI Reporting Station
Overcast Overcast  
Wind Chill: 50°   Ceiling: 3400
Heat Index: 50°   Visibility: 10mi
Dew Point: 36°   Wind: 25mph
Humidity: 59%   Direction: 350°N
Pressure: 30.18"   Gusts: 32mph
Location:  36.99°N, 89.69°W
Report Text: KCGI 311611Z 35022G28KT 10SM SCT027 BKN034 OVC055 10/02 A3018 RMK AO2 PK WND 35028/1608 T01000022
Loading
Personal Weather Stations






























Interactive Weather Map
Tropical Storm Tracking
New forecast layout! Learn more

10-Day Weather Forecast

Advertisements
Track Severe Weather on mobile